Time;durP1;ratioP1;P1;durP2;ratioP2;P2;SDS_P1;SDS_P2;PMS_P1;PMS_P2;Temp;Humidity;BMP_temperature;BMP_pressure;BME280_temperature;BME280_humidity;BME280_pressure;Samples;Min_cycle;Max_cycle;Signal;HPM_P1;HPM_P2
2022/07/28 00:02:07;;;;;;;3.03;1.50;;;24.60;48.10;;;;;;5017756;28;20200;-76
2022/07/28 00:04:35;;;;;;;2.20;1.60;;;24.60;48.00;;;;;;5017598;28;20212;-76
2022/07/28 00:07:04;;;;;;;2.60;1.60;;;24.60;48.00;;;;;;5034159;28;20207;-75
2022/07/28 00:09:32;;;;;;;1.75;1.52;;;24.60;48.10;;;;;;5033996;28;20712;-75
2022/07/28 00:11:59;;;;;;;1.73;1.63;;;24.50;48.00;;;;;;5034022;28;20196;-76
2022/07/28 00:14:26;;;;;;;2.17;1.60;;;24.50;47.80;;;;;;5034429;28;20220;-75
2022/07/28 00:16:53;;;;;;;1.73;1.63;;;24.50;48.00;;;;;;5017511;28;20210;-75
2022/07/28 00:19:20;;;;;;;2.65;1.48;;;24.50;48.10;;;;;;5033982;28;20199;-76
2022/07/28 00:21:47;;;;;;;1.60;1.50;;;24.50;48.10;;;;;;5017484;28;20204;-75
2022/07/28 00:24:14;;;;;;;2.20;1.50;;;24.50;48.00;;;;;;5001752;28;20230;-76
2022/07/28 00:26:43;;;;;;;2.38;1.90;;;24.50;48.20;;;;;;5033817;28;20250;-76
2022/07/28 00:29:11;;;;;;;1.98;1.67;;;24.50;48.20;;;;;;5032872;28;20242;-77
2022/07/28 00:31:38;;;;;;;1.60;1.50;;;24.40;48.00;;;;;;5017171;28;20204;-75
2022/07/28 00:34:05;;;;;;;1.70;1.60;;;24.40;48.00;;;;;;5033678;28;20247;-75
2022/07/28 00:36:32;;;;;;;1.65;1.55;;;24.40;48.10;;;;;;5017205;28;20265;-76
2022/07/28 00:38:59;;;;;;;2.20;1.60;;;24.50;48.10;;;;;;5017043;28;20191;-76
2022/07/28 00:41:26;;;;;;;1.63;1.52;;;24.40;47.90;;;;;;5033650;28;20208;-75
2022/07/28 00:43:56;;;;;;;2.05;1.60;;;24.40;47.90;;;;;;5033353;28;20216;-75
2022/07/28 00:46:23;;;;;;;1.77;1.67;;;24.40;48.00;;;;;;5017138;28;20283;-75
2022/07/28 00:48:51;;;;;;;1.95;1.50;;;24.40;48.10;;;;;;5033541;28;20216;-76
2022/07/28 00:51:19;;;;;;;2.17;1.52;;;24.40;47.90;;;;;;5034492;28;20192;-75
2022/07/28 00:53:46;;;;;;;1.67;1.50;;;24.30;47.90;;;;;;5033134;28;20216;-76
2022/07/28 00:56:13;;;;;;;1.65;1.40;;;24.40;48.20;;;;;;5016767;28;20246;-74
2022/07/28 00:58:40;;;;;;;2.70;1.60;;;24.40;47.80;;;;;;5033079;28;20547;-75
2022/07/28 01:01:10;;;;;;;1.83;1.52;;;24.30;47.80;;;;;;5016665;28;20204;-74
2022/07/28 01:03:39;;;;;;;2.35;1.70;;;24.30;47.90;;;;;;5016797;28;20326;-73
2022/07/28 01:06:10;;;;;;;2.08;1.70;;;24.30;47.80;;;;;;5033046;28;20291;-74
2022/07/28 01:08:45;;;;;;;2.03;1.83;;;24.30;48.00;;;;;;5033354;28;20208;-74
2022/07/28 01:11:13;;;;;;;1.50;1.40;;;24.30;47.80;;;;;;5033905;28;20196;-74
2022/07/28 01:13:43;;;;;;;2.17;1.70;;;24.30;48.00;;;;;;5033465;28;20254;-74
2022/07/28 01:16:11;;;;;;;1.58;1.48;;;24.30;47.90;;;;;;5032723;28;20238;-74
2022/07/28 01:18:41;;;;;;;2.80;1.65;;;24.20;47.60;;;;;;5016936;28;20192;-73
2022/07/28 01:21:10;;;;;;;1.60;1.50;;;24.20;47.90;;;;;;5033015;28;20200;-74
2022/07/28 01:23:59;;;;;;;2.20;1.50;;;24.20;47.80;;;;;;5032758;28;20211;-74
2022/07/28 01:26:35;;;;;;;2.15;1.60;;;24.20;47.70;;;;;;5033256;28;20218;-73
2022/07/28 01:29:04;;;;;;;1.90;1.67;;;24.20;47.80;;;;;;5032990;28;20219;-74
2022/07/28 01:31:36;;;;;;;1.60;1.50;;;24.20;48.00;;;;;;5032800;28;20594;-73
2022/07/28 01:34:06;;;;;;;1.90;1.70;;;24.20;47.90;;;;;;5032642;28;20258;-74
2022/07/28 01:36:36;;;;;;;2.13;1.63;;;24.20;47.90;;;;;;5016089;28;20196;-75
2022/07/28 01:39:03;;;;;;;2.90;1.80;;;24.20;48.00;;;;;;5032520;28;20200;-74
2022/07/28 01:41:31;;;;;;;2.83;1.60;;;24.20;48.60;;;;;;5032590;28;20196;-74
2022/07/28 01:43:59;;;;;;;2.22;1.50;;;24.10;47.80;;;;;;5016746;28;20223;-75
2022/07/28 01:46:26;;;;;;;2.88;1.50;;;24.10;48.00;;;;;;5032806;28;20257;-75
2022/07/28 01:48:55;;;;;;;1.80;1.70;;;24.10;47.90;;;;;;5032365;28;20220;-75
2022/07/28 01:51:22;;;;;;;1.75;1.42;;;24.10;47.90;;;;;;5016111;28;20200;-75
2022/07/28 01:53:49;;;;;;;2.65;1.60;;;24.10;47.90;;;;;;5032481;28;20227;-75
2022/07/28 01:56:16;;;;;;;1.60;1.42;;;24.10;48.50;;;;;;5016032;28;20654;-75
2022/07/28 01:58:44;;;;;;;2.13;1.50;;;24.10;47.90;;;;;;5032573;28;20196;-75
2022/07/28 02:01:11;;;;;;;1.75;1.58;;;24.00;47.80;;;;;;5032506;28;20215;-75
2022/07/28 02:03:38;;;;;;;2.42;1.73;;;24.00;47.90;;;;;;5032559;28;20632;-75
2022/07/28 02:06:07;;;;;;;3.15;1.70;;;24.00;47.50;;;;;;5032361;28;20200;-75
2022/07/28 02:08:34;;;;;;;2.83;1.80;;;24.00;47.70;;;;;;5015877;28;20223;-75
2022/07/28 02:13:46;;;;;;;1.70;1.60;;;24.00;47.70;;;;;;5032339;28;20270;-75
2022/07/28 02:16:13;;;;;;;2.08;1.88;;;23.90;47.90;;;;;;5032765;28;20200;-75
2022/07/28 02:18:40;;;;;;;1.85;1.73;;;24.00;47.90;;;;;;5015835;28;20659;-75
2022/07/28 02:21:08;;;;;;;2.08;1.88;;;23.90;47.70;;;;;;5033631;28;20192;-75
2022/07/28 02:23:35;;;;;;;2.30;1.52;;;23.90;47.70;;;;;;5016275;28;20224;-75
2022/07/28 02:26:03;;;;;;;2.20;1.67;;;23.90;47.70;;;;;;5032334;28;20204;-75
2022/07/28 02:28:30;;;;;;;2.53;1.80;;;23.90;47.50;;;;;;5032102;28;20196;-75
2022/07/28 02:31:00;;;;;;;1.70;1.60;;;23.80;47.80;;;;;;5015740;28;20254;-75
2022/07/28 02:33:27;;;;;;;1.77;1.67;;;23.90;47.90;;;;;;5031705;28;20682;-75
2022/07/28 02:35:56;;;;;;;2.88;1.83;;;23.80;47.70;;;;;;5032145;28;20207;-74
2022/07/28 02:38:26;;;;;;;1.70;1.58;;;23.80;47.80;;;;;;5032094;28;20211;-74
2022/07/28 02:40:54;;;;;;;1.77;1.40;;;23.80;47.90;;;;;;5015664;28;20291;-74
2022/07/28 02:43:24;;;;;;;1.95;1.60;;;23.80;47.80;;;;;;5016034;28;20247;-75
2022/07/28 02:45:52;;;;;;;2.40;2.00;;;23.80;48.00;;;;;;5032101;28;20287;-74
2022/07/28 02:48:22;;;;;;;1.52;1.42;;;23.80;47.80;;;;;;5015728;28;20253;-74
2022/07/28 02:50:50;;;;;;;2.22;1.88;;;23.80;47.80;;;;;;5032252;28;20661;-75
2022/07/28 02:53:16;;;;;;;1.63;1.50;;;23.80;47.60;;;;;;5018520;28;20224;-75
2022/07/28 02:55:46;;;;;;;1.80;1.70;;;23.80;47.80;;;;;;5002749;28;20196;-74
2022/07/28 02:58:13;;;;;;;3.08;1.70;;;23.70;47.50;;;;;;5035440;28;20253;-74
2022/07/28 03:00:40;;;;;;;2.40;1.65;;;23.70;47.70;;;;;;5035451;28;20650;-75
2022/07/28 03:03:07;;;;;;;1.92;1.73;;;23.80;47.70;;;;;;5019365;28;20223;-76
2022/07/28 03:05:34;;;;;;;2.15;1.60;;;23.70;47.70;;;;;;5019132;28;20230;-74
2022/07/28 03:08:02;;;;;;;1.70;1.58;;;23.70;47.80;;;;;;5019934;28;20642;-74
2022/07/28 03:10:29;;;;;;;1.95;1.80;;;23.70;47.70;;;;;;5019689;28;20220;-75
2022/07/28 03:12:59;;;;;;;2.65;1.65;;;23.70;47.70;;;;;;5036636;28;20270;-75
2022/07/28 03:15:26;;;;;;;2.05;1.63;;;23.70;47.60;;;;;;5036261;28;20192;-75
2022/07/28 03:17:53;;;;;;;2.53;1.70;;;23.60;47.40;;;;;;5035069;28;20251;-74
2022/07/28 03:20:20;;;;;;;1.58;1.45;;;23.60;47.30;;;;;;5018579;28;20237;-75
2022/07/28 03:22:47;;;;;;;2.33;1.92;;;23.60;47.30;;;;;;5019389;28;20706;-75
2022/07/28 03:25:17;;;;;;;2.70;1.70;;;23.60;47.20;;;;;;5018639;28;20682;-75
2022/07/28 03:27:45;;;;;;;2.70;1.80;;;23.70;47.20;;;;;;5018409;28;20639;-75
2022/07/28 03:30:15;;;;;;;1.95;1.50;;;23.70;47.20;;;;;;5034749;28;20565;-75
2022/07/28 03:32:44;;;;;;;2.53;1.77;;;23.70;47.10;;;;;;5034580;28;20216;-75
2022/07/28 03:35:11;;;;;;;2.22;1.80;;;23.70;47.10;;;;;;5002165;28;20206;-75
2022/07/28 03:37:40;;;;;;;2.13;1.92;;;23.70;47.00;;;;;;5034970;28;20234;-74
2022/07/28 03:40:09;;;;;;;1.70;1.52;;;23.80;47.10;;;;;;5018287;28;20203;-75
2022/07/28 03:42:36;;;;;;;1.90;1.80;;;23.70;46.90;;;;;;5034272;28;20232;-74
2022/07/28 03:45:03;;;;;;;1.90;1.73;;;23.70;46.80;;;;;;5034771;28;20200;-74
2022/07/28 03:47:32;;;;;;;2.00;1.77;;;23.70;46.80;;;;;;5035750;28;20188;-75
2022/07/28 03:49:59;;;;;;;3.03;1.98;;;23.70;46.60;;;;;;5034433;28;20686;-75
2022/07/28 03:52:26;;;;;;;1.98;1.77;;;23.80;46.90;;;;;;5017992;28;20203;-75
2022/07/28 03:54:53;;;;;;;2.25;1.83;;;23.70;46.70;;;;;;5034473;28;20203;-75
2022/07/28 03:57:20;;;;;;;1.88;1.73;;;23.70;46.60;;;;;;5018007;28;20602;-75
2022/07/28 03:59:47;;;;;;;2.53;1.90;;;23.70;46.60;;;;;;5034411;28;20196;-75
2022/07/28 04:02:14;;;;;;;2.00;1.80;;;23.70;46.70;;;;;;5018270;28;20196;-75
2022/07/28 04:04:44;;;;;;;2.35;1.60;;;23.70;46.70;;;;;;5034268;28;20266;-75
2022/07/28 04:07:11;;;;;;;2.72;1.83;;;23.70;46.80;;;;;;5034134;28;20567;-75
2022/07/28 04:09:38;;;;;;;2.88;1.73;;;23.70;46.80;;;;;;5033980;28;20220;-74
2022/07/28 04:12:05;;;;;;;2.65;1.60;;;23.70;46.70;;;;;;5035094;28;20200;-75
2022/07/28 04:14:33;;;;;;;2.90;1.73;;;23.70;46.90;;;;;;5017803;28;20642;-74
2022/07/28 04:17:00;;;;;;;1.90;1.67;;;23.70;46.90;;;;;;5017543;28;20615;-75
2022/07/28 04:19:27;;;;;;;2.83;1.88;;;23.70;46.80;;;;;;5033821;28;20250;-75
2022/07/28 04:21:56;;;;;;;3.05;1.70;;;23.70;46.70;;;;;;5034354;28;20200;-75
2022/07/28 04:24:23;;;;;;;2.33;1.77;;;23.70;46.80;;;;;;5034590;28;20220;-74
2022/07/28 04:26:50;;;;;;;2.15;1.80;;;23.70;46.90;;;;;;5017295;28;20219;-75
2022/07/28 04:29:17;;;;;;;2.33;1.60;;;23.70;47.60;;;;;;5017159;28;20208;-75
2022/07/28 04:31:44;;;;;;;2.20;1.73;;;23.70;47.00;;;;;;5017756;28;20196;-75
2022/07/28 04:34:13;;;;;;;1.77;1.60;;;23.70;47.10;;;;;;5001236;28;20223;-74
2022/07/28 04:36:42;;;;;;;2.63;1.95;;;23.70;47.10;;;;;;5017028;28;20207;-75
2022/07/28 04:39:11;;;;;;;1.77;1.50;;;23.70;47.10;;;;;;5034783;28;20188;-75
2022/07/28 04:41:38;;;;;;;2.67;1.90;;;23.70;47.00;;;;;;5033366;28;20614;-75
2022/07/28 04:44:05;;;;;;;1.73;1.60;;;23.70;46.80;;;;;;5033335;28;20226;-75
2022/07/28 04:46:33;;;;;;;3.00;1.65;;;23.70;47.00;;;;;;5017031;28;20200;-75
2022/07/28 04:49:00;;;;;;;1.95;1.70;;;23.70;47.00;;;;;;5016754;28;20204;-75
2022/07/28 04:51:27;;;;;;;2.42;1.90;;;23.70;46.90;;;;;;5033299;28;20196;-75
2022/07/28 04:53:54;;;;;;;1.90;1.70;;;23.70;46.80;;;;;;5017644;28;20254;-75
2022/07/28 04:56:23;;;;;;;3.15;1.80;;;23.80;47.00;;;;;;5034406;28;20192;-75
2022/07/28 04:58:50;;;;;;;2.08;1.73;;;23.80;46.90;;;;;;5016861;28;20203;-75
2022/07/28 05:01:20;;;;;;;1.60;1.50;;;24.00;46.70;;;;;;5016643;28;20287;-75
2022/07/28 05:03:47;;;;;;;1.88;1.70;;;24.20;46.40;;;;;;5016673;28;20254;-74
2022/07/28 05:06:14;;;;;;;2.00;1.70;;;24.30;46.00;;;;;;5016645;28;20572;-74
2022/07/28 05:08:41;;;;;;;2.60;1.90;;;24.40;45.70;;;;;;5016781;28;20197;-73
2022/07/28 05:11:08;;;;;;;3.47;2.00;;;24.60;45.30;;;;;;5016583;28;20220;-76
2022/07/28 05:13:36;;;;;;;2.95;2.13;;;24.40;45.20;;;;;;5033021;28;20769;-76
2022/07/28 05:16:04;;;;;;;3.42;2.30;;;24.00;45.90;;;;;;5032759;28;20203;-74
2022/07/28 05:18:31;;;;;;;2.17;1.90;;;23.90;46.10;;;;;;5016616;28;20196;-74
2022/07/28 05:20:58;;;;;;;3.72;2.10;;;23.80;46.50;;;;;;5033168;28;20192;-75
2022/07/28 05:23:25;;;;;;;2.75;2.20;;;23.70;46.60;;;;;;5032854;28;20273;-76
2022/07/28 05:25:52;;;;;;;2.72;2.13;;;23.50;46.90;;;;;;5016333;28;20196;-74
2022/07/28 05:28:19;;;;;;;2.90;1.92;;;23.40;47.50;;;;;;5016305;28;20296;-74
2022/07/28 05:30:48;;;;;;;2.65;2.15;;;23.30;47.50;;;;;;5016887;28;20413;-75
2022/07/28 05:33:15;;;;;;;3.45;1.85;;;23.40;47.90;;;;;;5016578;28;20220;-76
2022/07/28 05:35:43;;;;;;;3.97;1.98;;;23.40;47.50;;;;;;5016591;28;20196;-75
2022/07/28 05:38:10;;;;;;;4.13;2.28;;;23.40;47.70;;;;;;5033211;28;20203;-73
2022/07/28 05:40:37;;;;;;;2.67;2.20;;;23.30;48.30;;;;;;5017242;28;20736;-75
2022/07/28 05:43:05;;;;;;;2.83;2.05;;;23.30;48.70;;;;;;5016747;28;20568;-76
2022/07/28 05:45:33;;;;;;;4.03;2.10;;;23.30;48.40;;;;;;5001057;28;20552;-74
2022/07/28 05:48:01;;;;;;;3.63;2.15;;;23.30;48.50;;;;;;5016265;28;20230;-73
2022/07/28 05:50:28;;;;;;;3.53;1.80;;;23.40;48.50;;;;;;5016776;28;20690;-74
2022/07/28 05:52:55;;;;;;;3.10;2.00;;;23.50;48.60;;;;;;5016335;28;20220;-72
2022/07/28 05:55:23;;;;;;;3.35;2.00;;;23.80;47.80;;;;;;5032453;28;20231;-74
2022/07/28 05:57:49;;;;;;;3.75;2.20;;;24.00;47.40;;;;;;5032523;28;20232;-75
2022/07/28 06:00:18;;;;;;;4.63;2.22;;;24.10;47.20;;;;;;5016715;28;20234;-73
2022/07/28 06:02:46;;;;;;;4.15;2.20;;;24.30;47.10;;;;;;5032655;28;20230;-73
2022/07/28 06:05:15;;;;;;;4.22;2.00;;;24.40;46.90;;;;;;5032858;28;20226;-74
2022/07/28 06:07:43;;;;;;;4.68;2.22;;;24.70;46.30;;;;;;5016059;28;20204;-74
2022/07/28 06:10:11;;;;;;;3.72;2.00;;;25.00;45.80;;;;;;5032953;28;20220;-73
2022/07/28 06:12:41;;;;;;;3.67;2.10;;;25.20;45.20;;;;;;5032896;28;20216;-75
2022/07/28 06:15:11;;;;;;;3.80;2.22;;;25.40;44.70;;;;;;5016007;28;20206;-74
2022/07/28 06:17:39;;;;;;;2.30;2.10;;;25.60;44.40;;;;;;5032448;28;20557;-73
2022/07/28 06:20:06;;;;;;;2.55;2.28;;;25.70;44.00;;;;;;5034053;28;20651;-74
2022/07/28 06:22:43;;;;;;;3.25;2.00;;;25.90;43.60;;;;;;5016081;28;20196;-74
2022/07/28 06:25:13;;;;;;;2.15;1.90;;;26.10;43.40;;;;;;5032667;28;20183;-73
2022/07/28 06:27:39;;;;;;;2.92;2.28;;;26.20;43.10;;;;;;5034216;28;20539;-74
2022/07/28 06:30:08;;;;;;;3.38;2.17;;;26.30;42.80;;;;;;5004678;28;20250;-73
2022/07/28 06:32:34;;;;;;;4.00;2.15;;;26.50;42.60;;;;;;5038653;28;20199;-73
2022/07/28 06:35:02;;;;;;;5.13;2.53;;;26.60;42.40;;;;;;5021493;28;20286;-72
2022/07/28 06:37:28;;;;;;;3.40;2.20;;;26.60;42.40;;;;;;5037921;28;20203;-73
2022/07/28 06:39:57;;;;;;;2.97;2.22;;;26.60;42.20;;;;;;5037351;28;20246;-74
2022/07/28 06:42:24;;;;;;;2.20;1.83;;;26.80;42.10;;;;;;5019370;28;20196;-74
2022/07/28 06:44:51;;;;;;;2.40;2.05;;;26.80;41.70;;;;;;5019328;28;20195;-73
2022/07/28 06:47:18;;;;;;;2.45;1.98;;;27.00;41.70;;;;;;5019422;28;20275;-73
2022/07/28 06:49:45;;;;;;;3.35;2.20;;;27.10;41.40;;;;;;5019211;28;20199;-73
2022/07/28 06:52:12;;;;;;;2.88;2.20;;;27.20;41.20;;;;;;5019258;28;20204;-73
2022/07/28 06:54:39;;;;;;;2.38;2.00;;;27.30;41.10;;;;;;5035625;28;20770;-74
2022/07/28 06:57:08;;;;;;;2.55;2.10;;;27.40;40.80;;;;;;5019079;28;20200;-73
2022/07/28 06:59:35;;;;;;;2.45;1.98;;;27.50;40.70;;;;;;5036709;28;20196;-74
2022/07/28 07:02:02;;;;;;;4.10;2.17;;;27.70;40.50;;;;;;5018844;28;20188;-73
2022/07/28 07:04:29;;;;;;;3.47;2.10;;;27.70;40.40;;;;;;5035181;28;20247;-73
2022/07/28 07:06:56;;;;;;;3.70;2.03;;;27.80;40.20;;;;;;5018791;28;20199;-73
2022/07/28 07:09:23;;;;;;;2.80;2.10;;;27.80;40.00;;;;;;5035687;28;20199;-73
2022/07/28 07:11:50;;;;;;;2.15;1.95;;;27.90;39.90;;;;;;5035175;28;20215;-73
2022/07/28 07:14:18;;;;;;;2.58;1.90;;;28.00;39.80;;;;;;5018610;28;20219;-73
2022/07/28 07:16:45;;;;;;;3.25;2.03;;;28.10;39.70;;;;;;5002334;28;20200;-73
2022/07/28 07:19:12;;;;;;;3.17;2.13;;;28.10;39.50;;;;;;5018549;28;20632;-73
2022/07/28 07:21:39;;;;;;;3.25;2.28;;;28.20;39.50;;;;;;5035038;28;20286;-74
2022/07/28 07:24:09;;;;;;;2.75;2.22;;;28.30;39.30;;;;;;5018385;28;20211;-73
2022/07/28 07:26:36;;;;;;;2.45;1.90;;;28.40;39.20;;;;;;5018239;28;20657;-74
2022/07/28 07:29:03;;;;;;;2.35;2.15;;;28.50;39.10;;;;;;5018879;28;20616;-73
2022/07/28 07:31:32;;;;;;;3.20;2.17;;;28.50;39.00;;;;;;5035457;28;20712;-73
2022/07/28 07:33:59;;;;;;;2.10;1.95;;;28.50;38.80;;;;;;5020038;28;20286;-73
2022/07/28 07:36:26;;;;;;;1.98;1.83;;;28.60;38.70;;;;;;5019187;28;20341;-73
2022/07/28 07:38:54;;;;;;;2.25;2.03;;;28.70;38.60;;;;;;5036227;28;20664;-73
2022/07/28 07:41:21;;;;;;;3.80;2.38;;;28.80;38.60;;;;;;5018448;28;20290;-73
2022/07/28 07:43:48;;;;;;;2.47;1.90;;;28.80;38.40;;;;;;5018964;28;20254;-73
2022/07/28 07:46:17;;;;;;;3.22;2.22;;;28.90;39.00;;;;;;5034510;28;20199;-73
2022/07/28 07:48:45;;;;;;;2.33;2.00;;;28.90;38.30;;;;;;5017979;28;20585;-73
2022/07/28 07:51:12;;;;;;;2.40;2.20;;;29.00;38.40;;;;;;5018339;28;20216;-73
2022/07/28 07:53:40;;;;;;;2.70;2.00;;;29.00;38.20;;;;;;5017645;28;20269;-73
2022/07/28 07:56:06;;;;;;;2.38;2.08;;;29.10;38.10;;;;;;5017941;28;20203;-73
2022/07/28 07:58:33;;;;;;;2.63;2.25;;;29.10;38.10;;;;;;5017812;28;20207;-73
2022/07/28 08:01:00;;;;;;;2.33;2.13;;;29.10;38.00;;;;;;5035559;28;20180;-73
2022/07/28 08:03:27;;;;;;;2.83;2.42;;;29.20;38.00;;;;;;5035723;28;20265;-73
2022/07/28 08:05:56;;;;;;;4.90;2.15;;;29.20;37.90;;;;;;5034370;28;20223;-73
2022/07/28 08:08:23;;;;;;;2.83;2.10;;;29.20;37.90;;;;;;5034521;28;20206;-73
2022/07/28 08:10:50;;;;;;;2.97;2.10;;;29.20;37.80;;;;;;5034058;28;20251;-73
2022/07/28 08:13:19;;;;;;;2.30;2.00;;;29.20;37.80;;;;;;5017327;28;20219;-73
2022/07/28 08:15:47;;;;;;;2.17;1.98;;;29.30;37.80;;;;;;5033981;28;20206;-73
2022/07/28 08:18:14;;;;;;;2.33;2.13;;;29.30;37.80;;;;;;5033795;28;20199;-73
2022/07/28 08:20:41;;;;;;;2.40;2.20;;;29.30;37.70;;;;;;5017188;28;20231;-74
2022/07/28 08:23:09;;;;;;;2.28;2.08;;;29.30;37.70;;;;;;5017170;28;20225;-73
2022/07/28 08:25:36;;;;;;;3.60;2.20;;;29.40;37.70;;;;;;5017686;28;20216;-73
2022/07/28 08:28:04;;;;;;;2.50;2.30;;;29.40;37.70;;;;;;5034045;28;20217;-73
2022/07/28 08:30:31;;;;;;;2.53;2.00;;;29.40;37.70;;;;;;5017287;28;20273;-73
2022/07/28 08:32:58;;;;;;;2.40;2.10;;;29.40;37.80;;;;;;5017184;28;20223;-73
2022/07/28 08:35:25;;;;;;;2.20;2.00;;;29.40;37.80;;;;;;5017099;28;20194;-73
2022/07/28 08:37:52;;;;;;;2.70;2.22;;;29.40;38.50;;;;;;5033459;28;20685;-73
2022/07/28 08:40:21;;;;;;;2.60;2.40;;;29.40;37.80;;;;;;5017170;28;20249;-73
2022/07/28 08:42:50;;;;;;;1.95;1.85;;;29.40;37.80;;;;;;5017748;28;20219;-73
2022/07/28 08:45:18;;;;;;;2.03;1.92;;;29.50;37.80;;;;;;5017113;28;20203;-73
2022/07/28 08:47:44;;;;;;;2.20;1.85;;;29.50;37.80;;;;;;5033334;28;20211;-73
2022/07/28 08:50:12;;;;;;;2.10;1.90;;;29.50;37.80;;;;;;5016128;28;20202;-73
2022/07/28 08:52:39;;;;;;;2.58;2.00;;;29.50;37.80;;;;;;5033167;28;20265;-73
2022/07/28 08:55:11;;;;;;;2.60;2.10;;;29.50;37.80;;;;;;5016784;28;20200;-75
2022/07/28 08:57:41;;;;;;;2.08;1.88;;;29.50;37.80;;;;;;5033233;28;20195;-75
2022/07/28 09:00:09;;;;;;;2.30;2.10;;;29.50;37.70;;;;;;5033400;28;20559;-75
2022/07/28 09:02:36;;;;;;;2.80;2.25;;;29.60;37.80;;;;;;5032958;28;20318;-76
2022/07/28 09:05:03;;;;;;;2.95;2.10;;;29.50;37.70;;;;;;5016669;28;20183;-75
2022/07/28 09:07:30;;;;;;;2.53;2.10;;;29.50;37.60;;;;;;5033152;28;20209;-75
2022/07/28 09:09:57;;;;;;;3.47;2.20;;;29.50;37.60;;;;;;5033035;28;20203;-75
2022/07/28 09:12:24;;;;;;;1.90;1.80;;;29.60;37.70;;;;;;5016942;28;20276;-74
2022/07/28 09:14:53;;;;;;;1.90;1.80;;;29.60;37.70;;;;;;5016676;28;20203;-75
2022/07/28 09:17:20;;;;;;;2.22;1.98;;;29.60;37.70;;;;;;5032907;28;20199;-75
2022/07/28 09:19:47;;;;;;;2.40;2.20;;;29.60;37.70;;;;;;5032843;28;20712;-74
2022/07/28 09:22:14;;;;;;;2.28;2.00;;;29.50;37.80;;;;;;5000326;28;20638;-75
2022/07/28 09:24:43;;;;;;;2.38;2.17;;;29.50;38.50;;;;;;5032840;28;20199;-74
2022/07/28 09:27:10;;;;;;;1.90;1.80;;;29.50;38.00;;;;;;5016897;28;20207;-75
2022/07/28 09:29:38;;;;;;;2.10;1.90;;;29.50;38.00;;;;;;5032719;28;20200;-75
2022/07/28 09:32:07;;;;;;;1.90;1.80;;;29.50;38.10;;;;;;5032523;28;20216;-75
2022/07/28 09:34:39;;;;;;;2.30;2.08;;;29.50;38.00;;;;;;5032505;28;20598;-75
2022/07/28 09:37:06;;;;;;;2.78;2.13;;;29.40;38.10;;;;;;5016306;28;20286;-75
2022/07/28 09:39:35;;;;;;;2.30;2.15;;;29.40;38.10;;;;;;5016287;28;20199;-75
2022/07/28 09:42:02;;;;;;;2.08;1.92;;;29.50;38.20;;;;;;5016159;28;20196;-74
2022/07/28 09:44:29;;;;;;;2.70;1.85;;;29.50;38.10;;;;;;5016352;28;20285;-74
2022/07/28 09:46:56;;;;;;;2.28;2.13;;;29.50;38.00;;;;;;5016916;28;20192;-75
2022/07/28 09:49:40;;;;;;;2.35;1.98;;;29.50;38.00;;;;;;5016477;28;20199;-74
2022/07/28 09:52:06;;;;;;;2.00;1.80;;;29.60;38.10;;;;;;5033617;28;20223;-75
2022/07/28 09:54:33;;;;;;;2.08;1.88;;;29.60;38.10;;;;;;5033317;28;20222;-75
2022/07/28 09:57:00;;;;;;;2.80;1.92;;;29.50;38.00;;;;;;5034151;28;20188;-75
2022/07/28 09:59:39;;;;;;;2.22;2.00;;;29.60;38.10;;;;;;5032448;28;20285;-75
2022/07/28 10:02:06;;;;;;;2.42;2.10;;;29.50;38.30;;;;;;5035809;28;20199;-75
2022/07/28 10:04:35;;;;;;;2.33;2.10;;;29.40;38.40;;;;;;5020344;28;20219;-75
2022/07/28 10:07:04;;;;;;;2.08;1.98;;;29.30;38.60;;;;;;5037744;28;20199;-75
2022/07/28 10:09:31;;;;;;;2.17;1.95;;;29.20;38.80;;;;;;5036279;28;20208;-75
2022/07/28 10:12:16;;;;;;;2.00;1.90;;;29.10;39.00;;;;;;5019847;28;20211;-75
2022/07/28 10:14:45;;;;;;;2.00;1.90;;;29.10;39.20;;;;;;5037235;28;20206;-75
2022/07/28 10:17:12;;;;;;;2.40;2.20;;;29.00;39.30;;;;;;5020031;28;20196;-75
2022/07/28 10:19:40;;;;;;;2.35;2.00;;;29.00;39.30;;;;;;5019767;28;20199;-76
2022/07/28 10:22:07;;;;;;;2.17;2.08;;;29.00;39.30;;;;;;5036248;28;20199;-76
2022/07/28 10:24:34;;;;;;;2.38;2.17;;;29.00;39.30;;;;;;5019675;28;20207;-75
2022/07/28 10:27:01;;;;;;;2.20;2.00;;;28.90;39.50;;;;;;5035997;28;20245;-76
2022/07/28 10:29:30;;;;;;;2.10;1.90;;;28.90;39.50;;;;;;5019567;28;20665;-75
2022/07/28 10:31:58;;;;;;;2.40;2.20;;;28.90;39.50;;;;;;5036031;28;20701;-75
2022/07/28 10:34:31;;;;;;;2.58;2.22;;;28.90;39.60;;;;;;5035924;28;20303;-75
2022/07/28 10:37:00;;;;;;;2.20;2.00;;;28.90;39.70;;;;;;5036106;28;20569;-76
2022/07/28 10:39:30;;;;;;;2.20;2.00;;;28.90;39.80;;;;;;5019244;28;20191;-75
2022/07/28 10:41:57;;;;;;;2.20;2.00;;;28.90;40.30;;;;;;5019622;28;20187;-74
2022/07/28 10:44:25;;;;;;;2.10;2.00;;;28.90;39.80;;;;;;5019905;28;20222;-75
2022/07/28 10:46:51;;;;;;;2.05;1.90;;;28.80;39.70;;;;;;5019600;28;20295;-76
2022/07/28 10:49:20;;;;;;;2.10;1.90;;;28.80;39.90;;;;;;5037096;28;20191;-75
2022/07/28 10:51:48;;;;;;;4.13;2.22;;;28.80;39.90;;;;;;5035047;28;20245;-75
2022/07/28 10:54:19;;;;;;;2.20;2.10;;;28.70;39.90;;;;;;5018621;28;20216;-75
2022/07/28 10:56:49;;;;;;;2.22;2.00;;;28.70;40.10;;;;;;5019190;28;20184;-74
2022/07/28 10:59:36;;;;;;;2.05;1.88;;;28.70;40.10;;;;;;5019467;28;20226;-74
2022/07/28 11:02:03;;;;;;;2.17;2.08;;;28.60;40.20;;;;;;5036009;28;20199;-75
2022/07/28 11:04:51;;;;;;;2.28;2.08;;;28.60;40.20;;;;;;5019130;28;20705;-75
2022/07/28 11:07:19;;;;;;;1.92;1.83;;;28.50;40.40;;;;;;5011732;28;20203;-74
2022/07/28 11:09:48;;;;;;;2.30;1.90;;;28.40;40.50;;;;;;5019419;28;20245;-75
2022/07/28 11:12:15;;;;;;;2.00;1.88;;;28.40;40.70;;;;;;5018818;28;20230;-74
2022/07/28 11:14:42;;;;;;;2.15;1.90;;;28.40;40.80;;;;;;5035716;28;20196;-76
2022/07/28 11:17:16;;;;;;;2.78;1.90;;;28.30;40.90;;;;;;5035782;28;20191;-75
2022/07/28 11:19:54;;;;;;;2.08;1.98;;;28.40;41.10;;;;;;5019234;28;20737;-75
2022/07/28 11:22:29;;;;;;;2.40;2.20;;;28.30;41.10;;;;;;5035373;28;20200;-75
2022/07/28 11:25:17;;;;;;;1.90;1.80;;;28.30;41.10;;;;;;5035328;28;20242;-75
2022/07/28 11:28:04;;;;;;;1.98;1.80;;;28.30;41.20;;;;;;5018488;28;20672;-75
2022/07/28 11:30:53;;;;;;;2.22;1.90;;;28.20;41.20;;;;;;5036289;28;20226;-73
2022/07/28 11:33:21;;;;;;;2.20;2.00;;;28.20;41.20;;;;;;5036452;28;20250;-73
2022/07/28 11:35:56;;;;;;;2.10;1.90;;;28.20;41.20;;;;;;5038428;28;20203;-74
2022/07/28 11:38:24;;;;;;;2.20;2.05;;;28.20;41.20;;;;;;5036869;28;20202;-73
2022/07/28 11:40:52;;;;;;;2.03;1.90;;;28.20;41.20;;;;;;5020245;28;20208;-73
2022/07/28 11:43:29;;;;;;;2.67;2.05;;;28.20;41.30;;;;;;5037131;28;20309;-74
2022/07/28 11:46:25;;;;;;;1.88;1.77;;;28.20;41.40;;;;;;5036685;28;20191;-74
2022/07/28 11:49:14;;;;;;;2.20;2.00;;;28.20;41.50;;;;;;5035596;28;20269;-73
2022/07/28 11:51:41;;;;;;;1.98;1.88;;;28.10;41.50;;;;;;5035785;28;20246;-73
2022/07/28 11:54:15;;;;;;;1.80;1.70;;;28.10;41.60;;;;;;5019165;28;20219;-74
2022/07/28 11:56:44;;;;;;;1.92;1.80;;;28.10;41.70;;;;;;5035135;28;20237;-73
2022/07/28 11:59:12;;;;;;;2.28;2.08;;;28.10;41.70;;;;;;5018477;28;20670;-74
2022/07/28 12:01:39;;;;;;;1.98;1.88;;;28.10;41.70;;;;;;5018515;28;20183;-73
2022/07/28 12:04:10;;;;;;;2.17;2.00;;;28.10;41.70;;;;;;5031687;28;20211;-73
2022/07/28 12:06:39;;;;;;;1.95;1.85;;;28.10;41.70;;;;;;5017877;28;20191;-73
2022/07/28 12:09:06;;;;;;;1.90;1.80;;;28.20;41.60;;;;;;5034262;28;20195;-74
2022/07/28 12:11:34;;;;;;;1.83;1.73;;;28.20;41.60;;;;;;5033934;28;20219;-74
2022/07/28 12:14:03;;;;;;;2.35;2.00;;;28.20;41.60;;;;;;5033900;28;20230;-74
2022/07/28 12:16:31;;;;;;;1.95;1.85;;;28.20;41.60;;;;;;5034223;28;20207;-74
2022/07/28 12:18:59;;;;;;;2.75;2.20;;;28.20;41.60;;;;;;5034001;28;20206;-74
2022/07/28 12:21:45;;;;;;;1.88;1.77;;;28.20;41.70;;;;;;5034012;28;20294;-73
2022/07/28 12:24:14;;;;;;;2.13;2.00;;;28.20;41.70;;;;;;5033817;28;20219;-74
2022/07/28 12:26:41;;;;;;;2.15;2.00;;;28.20;41.70;;;;;;5017326;28;20599;-73
2022/07/28 12:29:12;;;;;;;2.00;1.90;;;28.10;41.70;;;;;;5033717;28;20230;-73
2022/07/28 12:31:42;;;;;;;2.08;1.88;;;28.10;41.80;;;;;;5017135;28;20290;-74
2022/07/28 12:34:10;;;;;;;1.92;1.83;;;28.10;42.40;;;;;;5016207;28;20314;-73
2022/07/28 12:36:37;;;;;;;2.15;1.95;;;28.10;41.80;;;;;;5033965;28;20203;-74
2022/07/28 12:39:05;;;;;;;2.00;1.90;;;28.10;41.90;;;;;;5033634;28;20249;-73
2022/07/28 12:41:32;;;;;;;2.15;2.00;;;28.10;41.90;;;;;;5016924;28;20215;-73
2022/07/28 12:44:00;;;;;;;2.13;1.90;;;28.10;41.90;;;;;;5017038;28;20226;-74
2022/07/28 12:46:29;;;;;;;1.98;1.88;;;28.10;41.90;;;;;;5033547;28;20249;-73
2022/07/28 12:48:56;;;;;;;2.60;1.98;;;28.10;41.90;;;;;;5017071;28;20207;-73
2022/07/28 12:51:31;;;;;;;1.85;1.70;;;28.10;41.90;;;;;;5033368;28;20282;-74
2022/07/28 12:53:58;;;;;;;1.90;1.80;;;28.10;41.90;;;;;;5033615;28;20277;-74
2022/07/28 12:56:25;;;;;;;1.90;1.80;;;28.20;41.90;;;;;;5017130;28;20200;-73
2022/07/28 12:59:04;;;;;;;1.92;1.83;;;28.20;41.90;;;;;;5033639;28;20253;-73